sensor_id;sensor_type;location;lat;lon;timestamp;temperature;humidity
61841;DHT22;47773;53.174;6.614;2023-12-07T00:01:00;3.50;99.90
61841;DHT22;47773;53.174;6.614;2023-12-07T00:03:26;3.50;99.90
61841;DHT22;47773;53.174;6.614;2023-12-07T00:05:51;3.50;99.90
61841;DHT22;47773;53.174;6.614;2023-12-07T00:08:17;3.50;99.90
61841;DHT22;47773;53.174;6.614;2023-12-07T00:10:42;3.50;99.90
61841;DHT22;47773;53.174;6.614;2023-12-07T00:13:08;3.50;99.90
61841;DHT22;47773;53.174;6.614;2023-12-07T00:15:34;3.50;99.90
61841;DHT22;47773;53.174;6.614;2023-12-07T00:17:59;3.50;99.90
61841;DHT22;47773;53.174;6.614;2023-12-07T00:20:26;3.50;99.90
61841;DHT22;47773;53.174;6.614;2023-12-07T00:22:51;3.50;99.90
61841;DHT22;47773;53.174;6.614;2023-12-07T00:25:17;3.50;99.90
61841;DHT22;47773;53.174;6.614;2023-12-07T00:27:42;3.50;99.90
61841;DHT22;47773;53.174;6.614;2023-12-07T00:30:08;3.50;99.90
61841;DHT22;47773;53.174;6.614;2023-12-07T00:32:34;3.50;99.90
61841;DHT22;47773;53.174;6.614;2023-12-07T00:35:00;3.50;99.90
61841;DHT22;47773;53.174;6.614;2023-12-07T00:37:25;3.50;99.90
61841;DHT22;47773;53.174;6.614;2023-12-07T00:39:52;3.50;99.90
61841;DHT22;47773;53.174;6.614;2023-12-07T00:42:18;3.50;99.90
61841;DHT22;47773;53.174;6.614;2023-12-07T00:44:43;3.50;99.90
61841;DHT22;47773;53.174;6.614;2023-12-07T00:47:09;3.50;99.90
61841;DHT22;47773;53.174;6.614;2023-12-07T00:49:38;3.50;99.90
61841;DHT22;47773;53.174;6.614;2023-12-07T00:52:05;3.50;99.90
61841;DHT22;47773;53.174;6.614;2023-12-07T00:54:31;3.50;99.90
61841;DHT22;47773;53.174;6.614;2023-12-07T00:56:57;3.50;99.90
61841;DHT22;47773;53.174;6.614;2023-12-07T00:59:23;3.50;99.90
61841;DHT22;47773;53.174;6.614;2023-12-07T01:01:49;3.50;99.90
61841;DHT22;47773;53.174;6.614;2023-12-07T01:04:15;3.50;99.90
61841;DHT22;47773;53.174;6.614;2023-12-07T01:06:41;3.50;99.90
61841;DHT22;47773;53.174;6.614;2023-12-07T01:09:08;3.50;99.90
61841;DHT22;47773;53.174;6.614;2023-12-07T01:11:38;3.50;99.90
61841;DHT22;47773;53.174;6.614;2023-12-07T01:14:05;3.50;99.90
61841;DHT22;47773;53.174;6.614;2023-12-07T01:16:31;3.50;99.90
61841;DHT22;47773;53.174;6.614;2023-12-07T01:18:57;3.50;99.90
61841;DHT22;47773;53.174;6.614;2023-12-07T01:21:23;3.50;99.90
61841;DHT22;47773;53.174;6.614;2023-12-07T01:23:49;3.50;99.90
61841;DHT22;47773;53.174;6.614;2023-12-07T01:26:14;3.50;99.90
61841;DHT22;47773;53.174;6.614;2023-12-07T01:28:40;3.50;99.90
61841;DHT22;47773;53.174;6.614;2023-12-07T01:31:06;3.40;99.90
61841;DHT22;47773;53.174;6.614;2023-12-07T01:33:31;3.50;99.90
61841;DHT22;47773;53.174;6.614;2023-12-07T01:35:57;3.50;99.90
61841;DHT22;47773;53.174;6.614;2023-12-07T01:38:22;3.40;99.90
61841;DHT22;47773;53.174;6.614;2023-12-07T01:40:48;3.50;99.90
61841;DHT22;47773;53.174;6.614;2023-12-07T01:43:14;3.50;99.90
61841;DHT22;47773;53.174;6.614;2023-12-07T01:45:40;3.50;99.90
61841;DHT22;47773;53.174;6.614;2023-12-07T01:48:06;3.50;99.90
61841;DHT22;47773;53.174;6.614;2023-12-07T01:50:33;3.50;99.90
61841;DHT22;47773;53.174;6.614;2023-12-07T01:53:02;3.50;99.90
61841;DHT22;47773;53.174;6.614;2023-12-07T01:55:29;3.50;99.90
61841;DHT22;47773;53.174;6.614;2023-12-07T01:57:56;3.50;99.90
61841;DHT22;47773;53.174;6.614;2023-12-07T02:00:22;3.40;99.90
61841;DHT22;47773;53.174;6.614;2023-12-07T02:02:47;3.50;99.90
61841;DHT22;47773;53.174;6.614;2023-12-07T02:05:14;3.40;99.90
61841;DHT22;47773;53.174;6.614;2023-12-07T02:07:41;3.40;99.90
61841;DHT22;47773;53.174;6.614;2023-12-07T02:10:07;3.50;99.90
61841;DHT22;47773;53.174;6.614;2023-12-07T02:12:33;3.50;99.90
61841;DHT22;47773;53.174;6.614;2023-12-07T02:15:03;3.50;99.90
61841;DHT22;47773;53.174;6.614;2023-12-07T02:17:37;3.50;99.90
61841;DHT22;47773;53.174;6.614;2023-12-07T02:20:06;3.40;99.90
61841;DHT22;47773;53.174;6.614;2023-12-07T02:22:55;3.40;99.90
61841;DHT22;47773;53.174;6.614;2023-12-07T02:25:32;3.40;99.90
61841;DHT22;47773;53.174;6.614;2023-12-07T02:28:00;3.40;99.90
61841;DHT22;47773;53.174;6.614;2023-12-07T02:30:26;3.40;99.90
61841;DHT22;47773;53.174;6.614;2023-12-07T02:32:52;3.40;99.90
61841;DHT22;47773;53.174;6.614;2023-12-07T02:35:17;3.40;99.90
61841;DHT22;47773;53.174;6.614;2023-12-07T02:37:48;3.40;99.90
61841;DHT22;47773;53.174;6.614;2023-12-07T02:40:17;3.40;99.90
61841;DHT22;47773;53.174;6.614;2023-12-07T02:42:43;3.40;99.90
61841;DHT22;47773;53.174;6.614;2023-12-07T02:45:10;3.40;99.90
61841;DHT22;47773;53.174;6.614;2023-12-07T02:47:36;3.40;99.90
61841;DHT22;47773;53.174;6.614;2023-12-07T02:50:06;3.40;99.90
61841;DHT22;47773;53.174;6.614;2023-12-07T02:52:33;3.40;99.90
61841;DHT22;47773;53.174;6.614;2023-12-07T02:54:59;3.40;99.90
61841;DHT22;47773;53.174;6.614;2023-12-07T02:57:24;3.40;99.90
61841;DHT22;47773;53.174;6.614;2023-12-07T02:59:50;3.40;99.90
61841;DHT22;47773;53.174;6.614;2023-12-07T03:02:16;3.40;99.90
61841;DHT22;47773;53.174;6.614;2023-12-07T03:04:41;3.40;99.90
61841;DHT22;47773;53.174;6.614;2023-12-07T03:07:07;3.40;99.90
61841;DHT22;47773;53.174;6.614;2023-12-07T03:09:33;3.40;99.90
61841;DHT22;47773;53.174;6.614;2023-12-07T03:11:58;3.40;99.90
61841;DHT22;47773;53.174;6.614;2023-12-07T03:14:24;3.40;99.90
61841;DHT22;47773;53.174;6.614;2023-12-07T03:16:50;3.40;99.90
61841;DHT22;47773;53.174;6.614;2023-12-07T03:19:15;3.40;99.90
61841;DHT22;47773;53.174;6.614;2023-12-07T03:21:42;3.40;99.90
61841;DHT22;47773;53.174;6.614;2023-12-07T03:24:08;3.40;99.90
61841;DHT22;47773;53.174;6.614;2023-12-07T03:26:35;3.40;99.90
61841;DHT22;47773;53.174;6.614;2023-12-07T03:29:01;3.40;99.90
61841;DHT22;47773;53.174;6.614;2023-12-07T03:31:27;3.40;99.90
61841;DHT22;47773;53.174;6.614;2023-12-07T03:33:54;3.40;99.90
61841;DHT22;47773;53.174;6.614;2023-12-07T03:36:19;3.40;99.90
61841;DHT22;47773;53.174;6.614;2023-12-07T03:38:45;3.50;99.90
61841;DHT22;47773;53.174;6.614;2023-12-07T03:41:11;3.40;99.90
61841;DHT22;47773;53.174;6.614;2023-12-07T03:43:36;3.50;99.90
61841;DHT22;47773;53.174;6.614;2023-12-07T03:46:06;3.50;99.90
61841;DHT22;47773;53.174;6.614;2023-12-07T03:48:32;3.40;99.90
61841;DHT22;47773;53.174;6.614;2023-12-07T03:50:59;3.50;99.90
61841;DHT22;47773;53.174;6.614;2023-12-07T03:53:24;3.50;99.90
61841;DHT22;47773;53.174;6.614;2023-12-07T03:55:50;3.50;99.90
61841;DHT22;47773;53.174;6.614;2023-12-07T03:58:16;3.50;99.90
61841;DHT22;47773;53.174;6.614;2023-12-07T04:00:42;3.50;99.90
61841;DHT22;47773;53.174;6.614;2023-12-07T04:03:07;3.50;99.90
61841;DHT22;47773;53.174;6.614;2023-12-07T04:05:33;3.50;99.90
61841;DHT22;47773;53.174;6.614;2023-12-07T04:07:59;3.40;99.90
61841;DHT22;47773;53.174;6.614;2023-12-07T04:10:25;3.40;99.90
61841;DHT22;47773;53.174;6.614;2023-12-07T04:12:51;3.40;99.90
61841;DHT22;47773;53.174;6.614;2023-12-07T04:15:18;3.40;99.90
61841;DHT22;47773;53.174;6.614;2023-12-07T04:17:45;3.40;99.90
61841;DHT22;47773;53.174;6.614;2023-12-07T04:20:11;3.40;99.90
61841;DHT22;47773;53.174;6.614;2023-12-07T04:22:38;3.40;99.90
61841;DHT22;47773;53.174;6.614;2023-12-07T04:25:05;3.40;99.90
61841;DHT22;47773;53.174;6.614;2023-12-07T04:27:31;3.40;99.90
61841;DHT22;47773;53.174;6.614;2023-12-07T04:29:57;3.30;99.90
61841;DHT22;47773;53.174;6.614;2023-12-07T04:32:23;3.30;99.90
61841;DHT22;47773;53.174;6.614;2023-12-07T04:34:49;3.30;99.90
61841;DHT22;47773;53.174;6.614;2023-12-07T04:37:15;3.30;99.90
61841;DHT22;47773;53.174;6.614;2023-12-07T04:39:40;3.30;99.90
61841;DHT22;47773;53.174;6.614;2023-12-07T04:42:06;3.30;99.90
61841;DHT22;47773;53.174;6.614;2023-12-07T04:44:32;3.30;99.90
61841;DHT22;47773;53.174;6.614;2023-12-07T04:46:57;3.30;99.90
61841;DHT22;47773;53.174;6.614;2023-12-07T04:49:23;3.20;99.90
61841;DHT22;47773;53.174;6.614;2023-12-07T04:51:49;3.20;99.90
61841;DHT22;47773;53.174;6.614;2023-12-07T04:54:14;3.20;99.90
61841;DHT22;47773;53.174;6.614;2023-12-07T04:56:43;3.20;99.90
61841;DHT22;47773;53.174;6.614;2023-12-07T04:59:12;3.20;99.90
61841;DHT22;47773;53.174;6.614;2023-12-07T05:01:37;3.10;99.90
61841;DHT22;47773;53.174;6.614;2023-12-07T05:04:04;3.10;99.90
61841;DHT22;47773;53.174;6.614;2023-12-07T05:06:31;3.10;99.90
61841;DHT22;47773;53.174;6.614;2023-12-07T05:08:57;3.10;99.90
61841;DHT22;47773;53.174;6.614;2023-12-07T05:11:22;3.10;99.90
61841;DHT22;47773;53.174;6.614;2023-12-07T05:13:48;3.00;99.90
61841;DHT22;47773;53.174;6.614;2023-12-07T05:16:14;3.00;99.90
61841;DHT22;47773;53.174;6.614;2023-12-07T05:18:40;3.00;99.90
61841;DHT22;47773;53.174;6.614;2023-12-07T05:21:06;3.00;99.90
61841;DHT22;47773;53.174;6.614;2023-12-07T05:23:31;3.00;99.90
61841;DHT22;47773;53.174;6.614;2023-12-07T05:25:57;3.00;99.90
61841;DHT22;47773;53.174;6.614;2023-12-07T05:28:23;3.10;99.90
61841;DHT22;47773;53.174;6.614;2023-12-07T05:30:49;3.10;99.90
61841;DHT22;47773;53.174;6.614;2023-12-07T05:33:15;3.00;99.90
61841;DHT22;47773;53.174;6.614;2023-12-07T05:35:41;3.10;99.90
61841;DHT22;47773;53.174;6.614;2023-12-07T05:38:07;3.00;99.90
61841;DHT22;47773;53.174;6.614;2023-12-07T05:40:32;3.00;99.90
61841;DHT22;47773;53.174;6.614;2023-12-07T05:42:59;3.00;99.90
61841;DHT22;47773;53.174;6.614;2023-12-07T05:45:25;3.00;99.90
61841;DHT22;47773;53.174;6.614;2023-12-07T05:47:51;3.00;99.90
61841;DHT22;47773;53.174;6.614;2023-12-07T05:50:17;3.00;99.90
61841;DHT22;47773;53.174;6.614;2023-12-07T05:52:43;3.00;99.90
61841;DHT22;47773;53.174;6.614;2023-12-07T05:55:09;2.90;99.90
61841;DHT22;47773;53.174;6.614;2023-12-07T05:57:35;2.90;99.90
61841;DHT22;47773;53.174;6.614;2023-12-07T06:00:00;2.90;99.90
61841;DHT22;47773;53.174;6.614;2023-12-07T06:02:26;2.90;99.90
61841;DHT22;47773;53.174;6.614;2023-12-07T06:04:52;2.90;99.90
61841;DHT22;47773;53.174;6.614;2023-12-07T06:07:18;2.90;99.90
61841;DHT22;47773;53.174;6.614;2023-12-07T06:09:43;2.80;99.90
61841;DHT22;47773;53.174;6.614;2023-12-07T06:12:09;2.80;99.90
61841;DHT22;47773;53.174;6.614;2023-12-07T06:14:35;2.80;99.90
61841;DHT22;47773;53.174;6.614;2023-12-07T06:17:00;2.80;99.90
61841;DHT22;47773;53.174;6.614;2023-12-07T06:19:26;2.70;99.90
61841;DHT22;47773;53.174;6.614;2023-12-07T06:21:52;2.80;99.90
61841;DHT22;47773;53.174;6.614;2023-12-07T06:24:17;2.80;99.90
61841;DHT22;47773;53.174;6.614;2023-12-07T06:26:43;2.80;99.90
61841;DHT22;47773;53.174;6.614;2023-12-07T06:29:09;2.80;99.90
61841;DHT22;47773;53.174;6.614;2023-12-07T06:31:34;2.80;99.90
61841;DHT22;47773;53.174;6.614;2023-12-07T06:34:00;2.80;99.90
61841;DHT22;47773;53.174;6.614;2023-12-07T06:36:26;2.80;99.90
61841;DHT22;47773;53.174;6.614;2023-12-07T06:38:52;2.80;99.90
61841;DHT22;47773;53.174;6.614;2023-12-07T06:41:20;2.90;99.90
61841;DHT22;47773;53.174;6.614;2023-12-07T06:43:46;2.90;99.90
61841;DHT22;47773;53.174;6.614;2023-12-07T06:46:12;2.90;99.90
61841;DHT22;47773;53.174;6.614;2023-12-07T06:48:38;2.90;99.90
61841;DHT22;47773;53.174;6.614;2023-12-07T06:51:04;2.90;99.90
61841;DHT22;47773;53.174;6.614;2023-12-07T06:53:30;2.90;99.90
61841;DHT22;47773;53.174;6.614;2023-12-07T06:55:57;3.00;99.90
61841;DHT22;47773;53.174;6.614;2023-12-07T06:58:23;3.00;99.90
61841;DHT22;47773;53.174;6.614;2023-12-07T07:00:49;3.00;99.90
61841;DHT22;47773;53.174;6.614;2023-12-07T07:03:15;3.10;99.90
61841;DHT22;47773;53.174;6.614;2023-12-07T07:05:41;3.10;99.90
61841;DHT22;47773;53.174;6.614;2023-12-07T07:08:06;3.10;99.90
61841;DHT22;47773;53.174;6.614;2023-12-07T07:10:34;3.10;99.90
61841;DHT22;47773;53.174;6.614;2023-12-07T07:13:00;3.20;99.90
61841;DHT22;47773;53.174;6.614;2023-12-07T07:15:28;3.20;99.90
61841;DHT22;47773;53.174;6.614;2023-12-07T07:17:54;3.20;99.90
61841;DHT22;47773;53.174;6.614;2023-12-07T07:20:19;3.20;99.90
61841;DHT22;47773;53.174;6.614;2023-12-07T07:22:46;3.20;99.90
61841;DHT22;47773;53.174;6.614;2023-12-07T07:25:11;3.20;99.90
61841;DHT22;47773;53.174;6.614;2023-12-07T07:27:37;3.20;99.90
61841;DHT22;47773;53.174;6.614;2023-12-07T07:30:03;3.20;99.90
61841;DHT22;47773;53.174;6.614;2023-12-07T07:32:29;3.20;99.90
61841;DHT22;47773;53.174;6.614;2023-12-07T07:34:56;3.20;99.90
61841;DHT22;47773;53.174;6.614;2023-12-07T07:37:22;3.20;99.90
61841;DHT22;47773;53.174;6.614;2023-12-07T07:39:47;3.20;99.90
61841;DHT22;47773;53.174;6.614;2023-12-07T07:42:14;3.30;99.90
61841;DHT22;47773;53.174;6.614;2023-12-07T07:44:40;3.20;99.90
61841;DHT22;47773;53.174;6.614;2023-12-07T07:47:06;3.30;99.90
61841;DHT22;47773;53.174;6.614;2023-12-07T07:49:33;3.20;99.90
61841;DHT22;47773;53.174;6.614;2023-12-07T07:51:59;3.30;99.90
61841;DHT22;47773;53.174;6.614;2023-12-07T07:54:26;3.30;99.90
61841;DHT22;47773;53.174;6.614;2023-12-07T07:56:51;3.30;99.90
61841;DHT22;47773;53.174;6.614;2023-12-07T07:59:17;3.20;99.90
61841;DHT22;47773;53.174;6.614;2023-12-07T08:01:43;3.30;99.90
61841;DHT22;47773;53.174;6.614;2023-12-07T08:04:10;3.20;99.90
61841;DHT22;47773;53.174;6.614;2023-12-07T08:06:35;3.30;99.90
61841;DHT22;47773;53.174;6.614;2023-12-07T08:09:01;3.20;99.90
61841;DHT22;47773;53.174;6.614;2023-12-07T08:11:27;3.20;99.90
61841;DHT22;47773;53.174;6.614;2023-12-07T08:13:54;3.20;99.90
61841;DHT22;47773;53.174;6.614;2023-12-07T08:16:19;3.20;99.90
61841;DHT22;47773;53.174;6.614;2023-12-07T08:18:45;3.20;99.90
61841;DHT22;47773;53.174;6.614;2023-12-07T08:21:19;3.20;99.90
61841;DHT22;47773;53.174;6.614;2023-12-07T08:23:45;3.20;99.90
61841;DHT22;47773;53.174;6.614;2023-12-07T08:26:11;3.20;99.90
61841;DHT22;47773;53.174;6.614;2023-12-07T08:28:39;3.20;99.90
61841;DHT22;47773;53.174;6.614;2023-12-07T08:31:05;3.20;99.90
61841;DHT22;47773;53.174;6.614;2023-12-07T08:33:32;3.30;99.90
61841;DHT22;47773;53.174;6.614;2023-12-07T08:36:00;3.30;99.90
61841;DHT22;47773;53.174;6.614;2023-12-07T08:38:26;3.30;99.90
61841;DHT22;47773;53.174;6.614;2023-12-07T08:40:52;3.40;99.90
61841;DHT22;47773;53.174;6.614;2023-12-07T08:43:21;3.30;99.90
61841;DHT22;47773;53.174;6.614;2023-12-07T08:45:53;3.40;99.90
61841;DHT22;47773;53.174;6.614;2023-12-07T08:48:19;3.40;99.90
61841;DHT22;47773;53.174;6.614;2023-12-07T08:50:46;3.40;99.90
61841;DHT22;47773;53.174;6.614;2023-12-07T08:53:11;3.40;99.90
61841;DHT22;47773;53.174;6.614;2023-12-07T08:55:37;3.40;99.90
61841;DHT22;47773;53.174;6.614;2023-12-07T08:58:03;3.40;99.90
61841;DHT22;47773;53.174;6.614;2023-12-07T09:00:31;3.40;99.90
61841;DHT22;47773;53.174;6.614;2023-12-07T09:02:57;3.30;99.90
61841;DHT22;47773;53.174;6.614;2023-12-07T09:05:23;3.20;99.90
61841;DHT22;47773;53.174;6.614;2023-12-07T09:07:48;3.20;99.90
61841;DHT22;47773;53.174;6.614;2023-12-07T09:10:14;3.10;99.90
61841;DHT22;47773;53.174;6.614;2023-12-07T09:12:40;3.10;99.90
61841;DHT22;47773;53.174;6.614;2023-12-07T09:15:07;3.10;99.90
61841;DHT22;47773;53.174;6.614;2023-12-07T09:17:39;3.20;99.90
61841;DHT22;47773;53.174;6.614;2023-12-07T09:20:09;3.10;99.90
61841;DHT22;47773;53.174;6.614;2023-12-07T09:22:40;3.10;99.90
61841;DHT22;47773;53.174;6.614;2023-12-07T09:25:06;3.10;99.90
61841;DHT22;47773;53.174;6.614;2023-12-07T09:27:33;3.10;99.90
61841;DHT22;47773;53.174;6.614;2023-12-07T09:30:00;3.10;99.90
61841;DHT22;47773;53.174;6.614;2023-12-07T09:32:26;3.10;99.90
61841;DHT22;47773;53.174;6.614;2023-12-07T09:34:53;3.10;99.90
61841;DHT22;47773;53.174;6.614;2023-12-07T09:37:19;3.10;99.90
61841;DHT22;47773;53.174;6.614;2023-12-07T09:39:45;3.10;99.90
61841;DHT22;47773;53.174;6.614;2023-12-07T09:42:11;3.20;99.90
61841;DHT22;47773;53.174;6.614;2023-12-07T09:44:37;3.20;99.90
61841;DHT22;47773;53.174;6.614;2023-12-07T09:47:02;3.20;99.90
61841;DHT22;47773;53.174;6.614;2023-12-07T09:49:29;3.20;99.90
61841;DHT22;47773;53.174;6.614;2023-12-07T09:51:56;3.30;99.90
61841;DHT22;47773;53.174;6.614;2023-12-07T09:54:24;3.30;99.90
61841;DHT22;47773;53.174;6.614;2023-12-07T09:56:50;3.30;99.90
61841;DHT22;47773;53.174;6.614;2023-12-07T09:59:18;3.30;99.90
61841;DHT22;47773;53.174;6.614;2023-12-07T10:01:44;3.30;99.90
61841;DHT22;47773;53.174;6.614;2023-12-07T10:04:20;3.30;99.90
61841;DHT22;47773;53.174;6.614;2023-12-07T10:06:48;3.30;99.90
61841;DHT22;47773;53.174;6.614;2023-12-07T10:09:15;3.40;99.90
61841;DHT22;47773;53.174;6.614;2023-12-07T10:11:41;3.40;99.90
61841;DHT22;47773;53.174;6.614;2023-12-07T10:14:07;3.40;99.90
61841;DHT22;47773;53.174;6.614;2023-12-07T10:16:33;3.40;99.90
61841;DHT22;47773;53.174;6.614;2023-12-07T10:19:16;3.50;99.90
61841;DHT22;47773;53.174;6.614;2023-12-07T10:21:51;3.50;99.90
61841;DHT22;47773;53.174;6.614;2023-12-07T10:24:22;3.60;99.90
61841;DHT22;47773;53.174;6.614;2023-12-07T10:26:51;3.60;99.90
61841;DHT22;47773;53.174;6.614;2023-12-07T10:29:20;3.60;99.90
61841;DHT22;47773;53.174;6.614;2023-12-07T10:31:48;3.70;99.90
61841;DHT22;47773;53.174;6.614;2023-12-07T10:34:18;3.70;99.90
61841;DHT22;47773;53.174;6.614;2023-12-07T10:36:46;3.70;99.90
61841;DHT22;47773;53.174;6.614;2023-12-07T10:39:12;3.70;99.90
61841;DHT22;47773;53.174;6.614;2023-12-07T10:41:39;3.70;99.90
61841;DHT22;47773;53.174;6.614;2023-12-07T10:44:09;3.80;99.90
61841;DHT22;47773;53.174;6.614;2023-12-07T10:46:37;3.80;99.90
61841;DHT22;47773;53.174;6.614;2023-12-07T10:49:08;3.80;99.90
61841;DHT22;47773;53.174;6.614;2023-12-07T10:51:49;3.90;99.90
61841;DHT22;47773;53.174;6.614;2023-12-07T10:54:18;3.90;99.90
61841;DHT22;47773;53.174;6.614;2023-12-07T10:56:46;3.90;99.90
61841;DHT22;47773;53.174;6.614;2023-12-07T10:59:13;3.90;99.90
61841;DHT22;47773;53.174;6.614;2023-12-07T11:01:40;4.00;99.90
61841;DHT22;47773;53.174;6.614;2023-12-07T11:04:06;4.00;99.90
61841;DHT22;47773;53.174;6.614;2023-12-07T11:06:35;4.00;99.90
61841;DHT22;47773;53.174;6.614;2023-12-07T11:09:04;4.00;99.90
61841;DHT22;47773;53.174;6.614;2023-12-07T11:11:44;4.10;99.90
61841;DHT22;47773;53.174;6.614;2023-12-07T11:14:12;4.10;99.90
61841;DHT22;47773;53.174;6.614;2023-12-07T11:16:46;4.10;99.90
61841;DHT22;47773;53.174;6.614;2023-12-07T11:21:59;4.20;99.90
61841;DHT22;47773;53.174;6.614;2023-12-07T11:24:25;4.20;99.90
61841;DHT22;47773;53.174;6.614;2023-12-07T11:26:54;4.20;99.90
61841;DHT22;47773;53.174;6.614;2023-12-07T11:29:30;4.20;99.90
61841;DHT22;47773;53.174;6.614;2023-12-07T11:31:57;4.20;99.90
61841;DHT22;47773;53.174;6.614;2023-12-07T11:34:42;4.20;99.90
61841;DHT22;47773;53.174;6.614;2023-12-07T11:37:10;4.20;99.90
61841;DHT22;47773;53.174;6.614;2023-12-07T11:39:37;4.30;99.90
61841;DHT22;47773;53.174;6.614;2023-12-07T11:42:10;4.30;99.90
61841;DHT22;47773;53.174;6.614;2023-12-07T11:44:40;4.30;99.90
61841;DHT22;47773;53.174;6.614;2023-12-07T11:47:07;4.40;99.90
61841;DHT22;47773;53.174;6.614;2023-12-07T11:49:34;4.40;99.90
61841;DHT22;47773;53.174;6.614;2023-12-07T11:52:01;4.40;99.90
61841;DHT22;47773;53.174;6.614;2023-12-07T11:54:37;4.40;99.90
61841;DHT22;47773;53.174;6.614;2023-12-07T11:57:03;4.40;99.90
61841;DHT22;47773;53.174;6.614;2023-12-07T11:59:29;4.40;99.90
61841;DHT22;47773;53.174;6.614;2023-12-07T12:01:54;4.40;99.90
61841;DHT22;47773;53.174;6.614;2023-12-07T12:04:21;4.40;99.90
61841;DHT22;47773;53.174;6.614;2023-12-07T12:06:47;4.40;99.90
61841;DHT22;47773;53.174;6.614;2023-12-07T12:09:14;4.40;99.90
61841;DHT22;47773;53.174;6.614;2023-12-07T12:11:49;4.30;99.90
61841;DHT22;47773;53.174;6.614;2023-12-07T12:14:16;4.30;99.90
61841;DHT22;47773;53.174;6.614;2023-12-07T12:16:42;4.30;99.90
61841;DHT22;47773;53.174;6.614;2023-12-07T12:19:08;4.30;99.90
61841;DHT22;47773;53.174;6.614;2023-12-07T12:21:38;4.20;99.90
61841;DHT22;47773;53.174;6.614;2023-12-07T12:24:07;4.20;99.90
61841;DHT22;47773;53.174;6.614;2023-12-07T12:26:34;4.10;99.90
61841;DHT22;47773;53.174;6.614;2023-12-07T12:29:01;4.00;99.90
61841;DHT22;47773;53.174;6.614;2023-12-07T12:31:27;4.00;99.90
61841;DHT22;47773;53.174;6.614;2023-12-07T12:33:53;3.90;99.90
61841;DHT22;47773;53.174;6.614;2023-12-07T12:36:20;3.80;99.90
61841;DHT22;47773;53.174;6.614;2023-12-07T12:38:51;3.70;99.90
61841;DHT22;47773;53.174;6.614;2023-12-07T12:41:21;3.60;99.90
61841;DHT22;47773;53.174;6.614;2023-12-07T12:43:48;3.50;99.90
61841;DHT22;47773;53.174;6.614;2023-12-07T12:46:15;3.50;99.90
61841;DHT22;47773;53.174;6.614;2023-12-07T12:51:28;3.40;99.90
61841;DHT22;47773;53.174;6.614;2023-12-07T12:53:56;3.40;99.90
61841;DHT22;47773;53.174;6.614;2023-12-07T12:56:22;3.30;99.90
61841;DHT22;47773;53.174;6.614;2023-12-07T12:58:52;3.20;99.90
61841;DHT22;47773;53.174;6.614;2023-12-07T13:01:18;3.20;99.90
61841;DHT22;47773;53.174;6.614;2023-12-07T13:03:44;3.20;99.90
61841;DHT22;47773;53.174;6.614;2023-12-07T13:06:14;3.20;99.90
61841;DHT22;47773;53.174;6.614;2023-12-07T13:08:49;3.10;99.90
61841;DHT22;47773;53.174;6.614;2023-12-07T13:11:16;3.20;99.90
61841;DHT22;47773;53.174;6.614;2023-12-07T13:13:42;3.20;99.90
61841;DHT22;47773;53.174;6.614;2023-12-07T13:16:08;3.20;99.90
61841;DHT22;47773;53.174;6.614;2023-12-07T13:18:33;3.10;99.90
61841;DHT22;47773;53.174;6.614;2023-12-07T13:20:59;3.10;99.90
61841;DHT22;47773;53.174;6.614;2023-12-07T13:23:25;3.00;99.90
61841;DHT22;47773;53.174;6.614;2023-12-07T13:25:51;3.00;99.90
61841;DHT22;47773;53.174;6.614;2023-12-07T13:28:17;2.90;99.90
61841;DHT22;47773;53.174;6.614;2023-12-07T13:30:43;2.80;99.90
61841;DHT22;47773;53.174;6.614;2023-12-07T13:33:09;2.70;99.90
61841;DHT22;47773;53.174;6.614;2023-12-07T13:35:35;2.70;99.90
61841;DHT22;47773;53.174;6.614;2023-12-07T13:38:01;2.70;99.90
61841;DHT22;47773;53.174;6.614;2023-12-07T13:40:26;2.70;99.90
61841;DHT22;47773;53.174;6.614;2023-12-07T13:42:52;2.70;99.90
61841;DHT22;47773;53.174;6.614;2023-12-07T13:45:18;2.60;99.90
61841;DHT22;47773;53.174;6.614;2023-12-07T13:47:45;2.70;99.90
61841;DHT22;47773;53.174;6.614;2023-12-07T13:50:11;2.70;99.90
61841;DHT22;47773;53.174;6.614;2023-12-07T13:52:38;2.70;99.90
61841;DHT22;47773;53.174;6.614;2023-12-07T13:55:04;2.70;99.90
61841;DHT22;47773;53.174;6.614;2023-12-07T13:57:30;2.60;99.90
61841;DHT22;47773;53.174;6.614;2023-12-07T13:59:56;2.70;99.90
61841;DHT22;47773;53.174;6.614;2023-12-07T14:02:22;2.60;99.90
61841;DHT22;47773;53.174;6.614;2023-12-07T14:04:49;2.50;99.90
61841;DHT22;47773;53.174;6.614;2023-12-07T14:07:20;2.50;99.90
61841;DHT22;47773;53.174;6.614;2023-12-07T14:09:50;2.50;99.90
61841;DHT22;47773;53.174;6.614;2023-12-07T14:12:16;2.50;99.90
61841;DHT22;47773;53.174;6.614;2023-12-07T14:14:44;2.50;99.90
61841;DHT22;47773;53.174;6.614;2023-12-07T14:17:10;2.40;99.90
61841;DHT22;47773;53.174;6.614;2023-12-07T14:19:36;2.40;99.90
61841;DHT22;47773;53.174;6.614;2023-12-07T14:22:03;2.40;99.90
61841;DHT22;47773;53.174;6.614;2023-12-07T14:24:29;2.50;99.90
61841;DHT22;47773;53.174;6.614;2023-12-07T14:26:57;2.50;99.90
61841;DHT22;47773;53.174;6.614;2023-12-07T14:29:23;2.40;99.90
61841;DHT22;47773;53.174;6.614;2023-12-07T14:31:51;2.40;99.90
61841;DHT22;47773;53.174;6.614;2023-12-07T14:34:17;2.40;99.90
61841;DHT22;47773;53.174;6.614;2023-12-07T14:36:43;2.40;99.90
61841;DHT22;47773;53.174;6.614;2023-12-07T14:39:12;2.40;99.90
61841;DHT22;47773;53.174;6.614;2023-12-07T14:41:46;2.40;99.90
61841;DHT22;47773;53.174;6.614;2023-12-07T14:44:13;2.40;99.90
61841;DHT22;47773;53.174;6.614;2023-12-07T14:46:50;2.40;99.90
61841;DHT22;47773;53.174;6.614;2023-12-07T14:49:18;2.40;99.90
61841;DHT22;47773;53.174;6.614;2023-12-07T14:51:50;2.40;99.90
61841;DHT22;47773;53.174;6.614;2023-12-07T14:54:16;2.40;99.90
61841;DHT22;47773;53.174;6.614;2023-12-07T14:56:43;2.40;99.90
61841;DHT22;47773;53.174;6.614;2023-12-07T14:59:13;2.40;99.90
61841;DHT22;47773;53.174;6.614;2023-12-07T15:01:39;2.50;99.90
61841;DHT22;47773;53.174;6.614;2023-12-07T15:04:06;2.50;99.90
61841;DHT22;47773;53.174;6.614;2023-12-07T15:06:32;2.50;99.90
61841;DHT22;47773;53.174;6.614;2023-12-07T15:09:01;2.60;99.90
61841;DHT22;47773;53.174;6.614;2023-12-07T15:11:35;2.60;99.90
61841;DHT22;47773;53.174;6.614;2023-12-07T15:14:01;2.60;99.90
61841;DHT22;47773;53.174;6.614;2023-12-07T15:16:28;2.60;99.90
61841;DHT22;47773;53.174;6.614;2023-12-07T15:18:54;2.60;99.90
61841;DHT22;47773;53.174;6.614;2023-12-07T15:21:19;2.60;99.90
61841;DHT22;47773;53.174;6.614;2023-12-07T15:23:45;2.60;99.90
61841;DHT22;47773;53.174;6.614;2023-12-07T15:26:11;2.60;99.90
61841;DHT22;47773;53.174;6.614;2023-12-07T15:28:38;2.60;99.90
61841;DHT22;47773;53.174;6.614;2023-12-07T15:31:05;2.60;99.90
61841;DHT22;47773;53.174;6.614;2023-12-07T15:33:32;2.60;99.90
61841;DHT22;47773;53.174;6.614;2023-12-07T15:35:58;2.60;99.90
61841;DHT22;47773;53.174;6.614;2023-12-07T15:38:24;2.60;99.90
61841;DHT22;47773;53.174;6.614;2023-12-07T15:40:50;2.60;99.90
61841;DHT22;47773;53.174;6.614;2023-12-07T15:43:25;2.60;99.90
61841;DHT22;47773;53.174;6.614;2023-12-07T15:45:51;2.60;99.90
61841;DHT22;47773;53.174;6.614;2023-12-07T15:48:17;2.70;99.90